sensor_id;sensor_type;location;lat;lon;timestamp;P1;durP1;ratioP1;P2;durP2;ratioP2
15667;SDS011;7934;48.710;9.024;2023-06-14T00:01:16;4.10;;;3.70;;
15667;SDS011;7934;48.710;9.024;2023-06-14T00:03:45;5.78;;;4.13;;
15667;SDS011;7934;48.710;9.024;2023-06-14T00:06:13;4.65;;;3.92;;
15667;SDS011;7934;48.710;9.024;2023-06-14T00:08:40;5.50;;;3.78;;
15667;SDS011;7934;48.710;9.024;2023-06-14T00:11:07;4.75;;;3.42;;
15667;SDS011;7934;48.710;9.024;2023-06-14T00:13:35;4.00;;;3.40;;
15667;SDS011;7934;48.710;9.024;2023-06-14T00:16:03;6.57;;;3.75;;
15667;SDS011;7934;48.710;9.024;2023-06-14T00:18:30;4.38;;;3.72;;
15667;SDS011;7934;48.710;9.024;2023-06-14T00:20:58;4.43;;;4.10;;
15667;SDS011;7934;48.710;9.024;2023-06-14T00:23:27;4.40;;;4.10;;
15667;SDS011;7934;48.710;9.024;2023-06-14T00:25:54;4.63;;;4.18;;
15667;SDS011;7934;48.710;9.024;2023-06-14T00:28:21;4.47;;;4.07;;
15667;SDS011;7934;48.710;9.024;2023-06-14T00:30:49;6.57;;;4.23;;
15667;SDS011;7934;48.710;9.024;2023-06-14T00:33:17;4.75;;;3.80;;
15667;SDS011;7934;48.710;9.024;2023-06-14T00:35:44;4.25;;;3.95;;
15667;SDS011;7934;48.710;9.024;2023-06-14T00:38:12;4.18;;;3.88;;
15667;SDS011;7934;48.710;9.024;2023-06-14T00:40:39;4.63;;;4.13;;
15667;SDS011;7934;48.710;9.024;2023-06-14T00:43:09;4.65;;;4.25;;
15667;SDS011;7934;48.710;9.024;2023-06-14T00:45:36;6.75;;;3.83;;
15667;SDS011;7934;48.710;9.024;2023-06-14T00:48:03;4.45;;;4.00;;
15667;SDS011;7934;48.710;9.024;2023-06-14T00:50:32;4.28;;;3.97;;
15667;SDS011;7934;48.710;9.024;2023-06-14T00:53:01;5.60;;;4.30;;
15667;SDS011;7934;48.710;9.024;2023-06-14T00:55:28;4.60;;;4.10;;
15667;SDS011;7934;48.710;9.024;2023-06-14T00:57:57;5.45;;;4.00;;
15667;SDS011;7934;48.710;9.024;2023-06-14T01:00:25;4.30;;;3.90;;
15667;SDS011;7934;48.710;9.024;2023-06-14T01:02:53;4.90;;;4.28;;
15667;SDS011;7934;48.710;9.024;2023-06-14T01:05:21;4.33;;;4.00;;
15667;SDS011;7934;48.710;9.024;2023-06-14T01:07:54;4.25;;;3.90;;
15667;SDS011;7934;48.710;9.024;2023-06-14T01:10:27;4.60;;;4.10;;
15667;SDS011;7934;48.710;9.024;2023-06-14T01:12:58;4.32;;;3.92;;
15667;SDS011;7934;48.710;9.024;2023-06-14T01:15:29;4.67;;;4.27;;
15667;SDS011;7934;48.710;9.024;2023-06-14T01:17:57;3.90;;;3.60;;
15667;SDS011;7934;48.710;9.024;2023-06-14T01:20:28;5.30;;;3.97;;
15667;SDS011;7934;48.710;9.024;2023-06-14T01:22:57;4.85;;;4.35;;
15667;SDS011;7934;48.710;9.024;2023-06-14T01:25:24;5.60;;;4.10;;
15667;SDS011;7934;48.710;9.024;2023-06-14T01:27:53;4.47;;;4.10;;
15667;SDS011;7934;48.710;9.024;2023-06-14T01:30:22;4.10;;;3.80;;
15667;SDS011;7934;48.710;9.024;2023-06-14T01:32:50;4.78;;;4.25;;
15667;SDS011;7934;48.710;9.024;2023-06-14T01:35:18;6.82;;;4.22;;
15667;SDS011;7934;48.710;9.024;2023-06-14T01:37:45;4.38;;;4.03;;
15667;SDS011;7934;48.710;9.024;2023-06-14T01:40:15;6.10;;;4.20;;
15667;SDS011;7934;48.710;9.024;2023-06-14T01:42:42;5.10;;;4.22;;
15667;SDS011;7934;48.710;9.024;2023-06-14T01:45:10;4.85;;;4.00;;
15667;SDS011;7934;48.710;9.024;2023-06-14T01:47:38;5.63;;;4.20;;
15667;SDS011;7934;48.710;9.024;2023-06-14T01:50:05;4.30;;;4.00;;
15667;SDS011;7934;48.710;9.024;2023-06-14T01:52:33;4.60;;;4.10;;
15667;SDS011;7934;48.710;9.024;2023-06-14T01:55:00;4.35;;;3.90;;
15667;SDS011;7934;48.710;9.024;2023-06-14T01:57:29;4.18;;;3.80;;
15667;SDS011;7934;48.710;9.024;2023-06-14T01:59:56;4.60;;;4.20;;
15667;SDS011;7934;48.710;9.024;2023-06-14T02:02:23;4.38;;;4.07;;
15667;SDS011;7934;48.710;9.024;2023-06-14T02:04:50;4.55;;;4.13;;
15667;SDS011;7934;48.710;9.024;2023-06-14T02:07:17;4.97;;;4.25;;
15667;SDS011;7934;48.710;9.024;2023-06-14T02:09:45;4.43;;;4.18;;
15667;SDS011;7934;48.710;9.024;2023-06-14T02:12:12;7.68;;;5.03;;
15667;SDS011;7934;48.710;9.024;2023-06-14T02:14:40;4.55;;;4.13;;
15667;SDS011;7934;48.710;9.024;2023-06-14T02:17:09;4.93;;;4.47;;
15667;SDS011;7934;48.710;9.024;2023-06-14T02:19:36;5.60;;;4.68;;
15667;SDS011;7934;48.710;9.024;2023-06-14T02:22:04;4.13;;;3.60;;
15667;SDS011;7934;48.710;9.024;2023-06-14T02:24:31;4.88;;;4.32;;
15667;SDS011;7934;48.710;9.024;2023-06-14T02:26:58;4.50;;;4.10;;
15667;SDS011;7934;48.710;9.024;2023-06-14T02:29:26;4.97;;;4.13;;
15667;SDS011;7934;48.710;9.024;2023-06-14T02:31:54;5.43;;;4.90;;
15667;SDS011;7934;48.710;9.024;2023-06-14T02:34:21;4.70;;;4.30;;
15667;SDS011;7934;48.710;9.024;2023-06-14T02:36:48;5.82;;;4.15;;
15667;SDS011;7934;48.710;9.024;2023-06-14T02:39:19;5.03;;;4.60;;
15667;SDS011;7934;48.710;9.024;2023-06-14T02:41:48;5.00;;;4.20;;
15667;SDS011;7934;48.710;9.024;2023-06-14T02:44:17;4.95;;;4.53;;
15667;SDS011;7934;48.710;9.024;2023-06-14T02:46:44;4.75;;;4.30;;
15667;SDS011;7934;48.710;9.024;2023-06-14T02:49:12;5.20;;;4.60;;
15667;SDS011;7934;48.710;9.024;2023-06-14T02:51:40;6.57;;;4.57;;
15667;SDS011;7934;48.710;9.024;2023-06-14T02:54:07;4.80;;;4.40;;
15667;SDS011;7934;48.710;9.024;2023-06-14T02:56:34;5.47;;;4.68;;
15667;SDS011;7934;48.710;9.024;2023-06-14T02:59:01;5.80;;;4.80;;
15667;SDS011;7934;48.710;9.024;2023-06-14T03:01:29;5.60;;;5.10;;
15667;SDS011;7934;48.710;9.024;2023-06-14T03:03:59;4.90;;;4.43;;
15667;SDS011;7934;48.710;9.024;2023-06-14T03:06:29;5.30;;;4.18;;
15667;SDS011;7934;48.710;9.024;2023-06-14T03:08:56;5.10;;;4.57;;
15667;SDS011;7934;48.710;9.024;2023-06-14T03:11:26;6.32;;;4.65;;
15667;SDS011;7934;48.710;9.024;2023-06-14T03:13:53;5.53;;;4.43;;
15667;SDS011;7934;48.710;9.024;2023-06-14T03:16:21;4.60;;;4.30;;
15667;SDS011;7934;48.710;9.024;2023-06-14T03:18:49;5.05;;;4.57;;
15667;SDS011;7934;48.710;9.024;2023-06-14T03:21:16;5.78;;;4.15;;
15667;SDS011;7934;48.710;9.024;2023-06-14T03:23:47;5.50;;;5.07;;
15667;SDS011;7934;48.710;9.024;2023-06-14T03:26:14;5.47;;;4.97;;
15667;SDS011;7934;48.710;9.024;2023-06-14T03:28:43;5.22;;;4.60;;
15667;SDS011;7934;48.710;9.024;2023-06-14T03:31:10;5.00;;;4.50;;
15667;SDS011;7934;48.710;9.024;2023-06-14T03:33:39;5.15;;;4.63;;
15667;SDS011;7934;48.710;9.024;2023-06-14T03:36:07;5.00;;;4.60;;
15667;SDS011;7934;48.710;9.024;2023-06-14T03:38:34;4.83;;;4.43;;
15667;SDS011;7934;48.710;9.024;2023-06-14T03:41:02;4.72;;;4.32;;
15667;SDS011;7934;48.710;9.024;2023-06-14T03:43:30;5.13;;;4.45;;
15667;SDS011;7934;48.710;9.024;2023-06-14T03:45:57;5.05;;;4.65;;
15667;SDS011;7934;48.710;9.024;2023-06-14T03:48:24;5.97;;;4.32;;
15667;SDS011;7934;48.710;9.024;2023-06-14T03:50:52;4.90;;;4.50;;
15667;SDS011;7934;48.710;9.024;2023-06-14T03:53:20;5.25;;;4.53;;
15667;SDS011;7934;48.710;9.024;2023-06-14T03:55:48;5.97;;;4.72;;
15667;SDS011;7934;48.710;9.024;2023-06-14T03:58:18;5.60;;;4.78;;
15667;SDS011;7934;48.710;9.024;2023-06-14T04:00:46;4.53;;;4.05;;
15667;SDS011;7934;48.710;9.024;2023-06-14T04:03:14;5.00;;;4.60;;
15667;SDS011;7934;48.710;9.024;2023-06-14T04:05:41;6.03;;;4.63;;
15667;SDS011;7934;48.710;9.024;2023-06-14T04:08:09;6.88;;;4.90;;
15667;SDS011;7934;48.710;9.024;2023-06-14T04:10:39;4.90;;;4.40;;
15667;SDS011;7934;48.710;9.024;2023-06-14T04:13:07;4.78;;;4.38;;
15667;SDS011;7934;48.710;9.024;2023-06-14T04:15:38;5.30;;;4.90;;
15667;SDS011;7934;48.710;9.024;2023-06-14T04:18:08;6.47;;;4.50;;
15667;SDS011;7934;48.710;9.024;2023-06-14T04:20:35;7.00;;;5.13;;
15667;SDS011;7934;48.710;9.024;2023-06-14T04:23:13;5.80;;;4.75;;
15667;SDS011;7934;48.710;9.024;2023-06-14T04:25:40;5.85;;;4.50;;
15667;SDS011;7934;48.710;9.024;2023-06-14T04:28:09;6.18;;;4.60;;
15667;SDS011;7934;48.710;9.024;2023-06-14T04:30:38;8.93;;;4.75;;
15667;SDS011;7934;48.710;9.024;2023-06-14T04:33:05;5.38;;;4.53;;
15667;SDS011;7934;48.710;9.024;2023-06-14T04:35:33;6.50;;;4.78;;
15667;SDS011;7934;48.710;9.024;2023-06-14T04:38:00;6.50;;;4.78;;
15667;SDS011;7934;48.710;9.024;2023-06-14T04:40:29;4.93;;;4.53;;
15667;SDS011;7934;48.710;9.024;2023-06-14T04:42:57;5.03;;;4.68;;
15667;SDS011;7934;48.710;9.024;2023-06-14T04:45:24;5.22;;;4.72;;
15667;SDS011;7934;48.710;9.024;2023-06-14T04:47:59;5.13;;;4.60;;
15667;SDS011;7934;48.710;9.024;2023-06-14T04:50:26;5.20;;;4.70;;
15667;SDS011;7934;48.710;9.024;2023-06-14T04:52:54;5.80;;;5.10;;
15667;SDS011;7934;48.710;9.024;2023-06-14T04:55:22;5.43;;;4.93;;
15667;SDS011;7934;48.710;9.024;2023-06-14T04:57:49;5.68;;;5.10;;
15667;SDS011;7934;48.710;9.024;2023-06-14T05:00:19;5.43;;;4.90;;
15667;SDS011;7934;48.710;9.024;2023-06-14T05:02:46;5.65;;;5.05;;
15667;SDS011;7934;48.710;9.024;2023-06-14T05:05:15;6.00;;;5.30;;
15667;SDS011;7934;48.710;9.024;2023-06-14T05:07:42;5.45;;;4.93;;
15667;SDS011;7934;48.710;9.024;2023-06-14T05:10:10;5.72;;;5.15;;
15667;SDS011;7934;48.710;9.024;2023-06-14T05:12:37;5.78;;;4.53;;
15667;SDS011;7934;48.710;9.024;2023-06-14T05:15:05;5.05;;;4.55;;
15667;SDS011;7934;48.710;9.024;2023-06-14T05:17:33;5.30;;;4.80;;
15667;SDS011;7934;48.710;9.024;2023-06-14T05:20:03;8.50;;;4.90;;
15667;SDS011;7934;48.710;9.024;2023-06-14T05:22:31;7.20;;;4.63;;
15667;SDS011;7934;48.710;9.024;2023-06-14T05:24:59;9.00;;;5.53;;
15667;SDS011;7934;48.710;9.024;2023-06-14T05:27:26;7.55;;;5.47;;
15667;SDS011;7934;48.710;9.024;2023-06-14T05:29:53;6.95;;;5.38;;
15667;SDS011;7934;48.710;9.024;2023-06-14T05:32:23;8.40;;;5.47;;
15667;SDS011;7934;48.710;9.024;2023-06-14T05:34:50;6.18;;;5.00;;
15667;SDS011;7934;48.710;9.024;2023-06-14T05:37:17;5.70;;;5.20;;
15667;SDS011;7934;48.710;9.024;2023-06-14T05:39:46;6.35;;;5.65;;
15667;SDS011;7934;48.710;9.024;2023-06-14T05:42:13;6.32;;;5.30;;
15667;SDS011;7934;48.710;9.024;2023-06-14T05:44:43;8.95;;;5.70;;
15667;SDS011;7934;48.710;9.024;2023-06-14T05:47:10;14.45;;;5.85;;
15667;SDS011;7934;48.710;9.024;2023-06-14T05:49:37;6.95;;;4.82;;
15667;SDS011;7934;48.710;9.024;2023-06-14T05:52:05;8.90;;;5.17;;
15667;SDS011;7934;48.710;9.024;2023-06-14T05:54:32;14.77;;;4.57;;
15667;SDS011;7934;48.710;9.024;2023-06-14T05:57:01;7.50;;;4.72;;
15667;SDS011;7934;48.710;9.024;2023-06-14T05:59:30;7.57;;;4.30;;
15667;SDS011;7934;48.710;9.024;2023-06-14T06:01:57;10.48;;;4.70;;
15667;SDS011;7934;48.710;9.024;2023-06-14T06:04:24;8.73;;;4.13;;
15667;SDS011;7934;48.710;9.024;2023-06-14T06:06:52;3.90;;;3.58;;
15667;SDS011;7934;48.710;9.024;2023-06-14T06:09:20;5.80;;;3.80;;
15667;SDS011;7934;48.710;9.024;2023-06-14T06:11:47;5.00;;;3.57;;
15667;SDS011;7934;48.710;9.024;2023-06-14T06:14:16;4.43;;;3.50;;
15667;SDS011;7934;48.710;9.024;2023-06-14T06:16:43;4.32;;;3.25;;
15667;SDS011;7934;48.710;9.024;2023-06-14T06:19:10;3.95;;;3.53;;
15667;SDS011;7934;48.710;9.024;2023-06-14T06:21:37;4.00;;;3.47;;
15667;SDS011;7934;48.710;9.024;2023-06-14T06:24:05;3.90;;;3.50;;
15667;SDS011;7934;48.710;9.024;2023-06-14T06:26:32;3.40;;;3.20;;
15667;SDS011;7934;48.710;9.024;2023-06-14T06:28:59;5.00;;;3.50;;
15667;SDS011;7934;48.710;9.024;2023-06-14T06:31:27;4.60;;;3.40;;
15667;SDS011;7934;48.710;9.024;2023-06-14T06:33:55;4.70;;;3.40;;
15667;SDS011;7934;48.710;9.024;2023-06-14T06:36:22;3.60;;;3.33;;
15667;SDS011;7934;48.710;9.024;2023-06-14T06:38:49;4.55;;;3.60;;
15667;SDS011;7934;48.710;9.024;2023-06-14T06:41:16;3.67;;;3.17;;
15667;SDS011;7934;48.710;9.024;2023-06-14T06:43:44;3.47;;;3.15;;
15667;SDS011;7934;48.710;9.024;2023-06-14T06:46:11;5.53;;;3.10;;
15667;SDS011;7934;48.710;9.024;2023-06-14T06:48:40;3.42;;;3.20;;
15667;SDS011;7934;48.710;9.024;2023-06-14T06:51:07;4.35;;;3.35;;
15667;SDS011;7934;48.710;9.024;2023-06-14T06:53:34;4.90;;;3.28;;
15667;SDS011;7934;48.710;9.024;2023-06-14T06:56:01;3.80;;;3.35;;
15667;SDS011;7934;48.710;9.024;2023-06-14T06:58:29;3.63;;;3.28;;
15667;SDS011;7934;48.710;9.024;2023-06-14T07:00:56;4.88;;;3.42;;
15667;SDS011;7934;48.710;9.024;2023-06-14T07:03:23;3.78;;;3.47;;
15667;SDS011;7934;48.710;9.024;2023-06-14T07:05:53;3.85;;;3.53;;
15667;SDS011;7934;48.710;9.024;2023-06-14T07:08:20;5.53;;;3.30;;
15667;SDS011;7934;48.710;9.024;2023-06-14T07:10:48;3.88;;;3.60;;
15667;SDS011;7934;48.710;9.024;2023-06-14T07:13:15;4.78;;;3.60;;
15667;SDS011;7934;48.710;9.024;2023-06-14T07:15:42;3.90;;;3.50;;
15667;SDS011;7934;48.710;9.024;2023-06-14T07:18:09;5.72;;;3.42;;
15667;SDS011;7934;48.710;9.024;2023-06-14T07:20:36;4.90;;;3.70;;
15667;SDS011;7934;48.710;9.024;2023-06-14T07:23:06;4.00;;;3.58;;
15667;SDS011;7934;48.710;9.024;2023-06-14T07:25:34;3.40;;;3.13;;
15667;SDS011;7934;48.710;9.024;2023-06-14T07:28:01;3.42;;;3.13;;
15667;SDS011;7934;48.710;9.024;2023-06-14T07:30:28;6.82;;;3.80;;
15667;SDS011;7934;48.710;9.024;2023-06-14T07:32:55;3.70;;;3.40;;
15667;SDS011;7934;48.710;9.024;2023-06-14T07:35:22;4.90;;;3.55;;
15667;SDS011;7934;48.710;9.024;2023-06-14T07:37:50;4.40;;;3.20;;
15667;SDS011;7934;48.710;9.024;2023-06-14T07:40:19;4.90;;;3.40;;
15667;SDS011;7934;48.710;9.024;2023-06-14T07:42:46;3.70;;;3.40;;
15667;SDS011;7934;48.710;9.024;2023-06-14T07:45:15;4.15;;;3.78;;
15667;SDS011;7934;48.710;9.024;2023-06-14T07:47:42;3.85;;;3.53;;
15667;SDS011;7934;48.710;9.024;2023-06-14T07:50:09;4.13;;;3.40;;
15667;SDS011;7934;48.710;9.024;2023-06-14T07:52:37;4.07;;;3.60;;
15667;SDS011;7934;48.710;9.024;2023-06-14T07:55:05;4.70;;;3.70;;
15667;SDS011;7934;48.710;9.024;2023-06-14T07:57:33;4.70;;;3.90;;
15667;SDS011;7934;48.710;9.024;2023-06-14T08:00:01;4.55;;;3.70;;
15667;SDS011;7934;48.710;9.024;2023-06-14T08:02:31;5.73;;;3.90;;
15667;SDS011;7934;48.710;9.024;2023-06-14T08:04:58;6.05;;;3.60;;
15667;SDS011;7934;48.710;9.024;2023-06-14T08:07:25;6.15;;;3.80;;
15667;SDS011;7934;48.710;9.024;2023-06-14T08:09:52;6.43;;;3.80;;
15667;SDS011;7934;48.710;9.024;2023-06-14T08:12:19;4.70;;;3.97;;
15667;SDS011;7934;48.710;9.024;2023-06-14T08:14:48;5.05;;;3.70;;
15667;SDS011;7934;48.710;9.024;2023-06-14T08:17:16;4.40;;;3.70;;
15667;SDS011;7934;48.710;9.024;2023-06-14T08:19:43;5.60;;;3.97;;
15667;SDS011;7934;48.710;9.024;2023-06-14T08:22:11;4.72;;;3.88;;
15667;SDS011;7934;48.710;9.024;2023-06-14T08:24:38;6.20;;;3.85;;
15667;SDS011;7934;48.710;9.024;2023-06-14T08:27:05;4.47;;;3.90;;
15667;SDS011;7934;48.710;9.024;2023-06-14T08:29:32;3.95;;;3.60;;
15667;SDS011;7934;48.710;9.024;2023-06-14T08:32:01;4.93;;;4.20;;
15667;SDS011;7934;48.710;9.024;2023-06-14T08:34:28;7.55;;;4.00;;
15667;SDS011;7934;48.710;9.024;2023-06-14T08:36:55;4.45;;;3.97;;
15667;SDS011;7934;48.710;9.024;2023-06-14T08:39:22;4.33;;;4.03;;
15667;SDS011;7934;48.710;9.024;2023-06-14T08:41:50;4.13;;;3.83;;
15667;SDS011;7934;48.710;9.024;2023-06-14T08:44:19;6.43;;;3.90;;
15667;SDS011;7934;48.710;9.024;2023-06-14T08:46:46;4.43;;;4.03;;
15667;SDS011;7934;48.710;9.024;2023-06-14T08:49:16;4.00;;;3.70;;
15667;SDS011;7934;48.710;9.024;2023-06-14T08:51:43;4.28;;;3.88;;
15667;SDS011;7934;48.710;9.024;2023-06-14T08:54:12;4.32;;;3.92;;
15667;SDS011;7934;48.710;9.024;2023-06-14T08:56:40;4.85;;;4.10;;
15667;SDS011;7934;48.710;9.024;2023-06-14T08:59:09;5.20;;;3.97;;
15667;SDS011;7934;48.710;9.024;2023-06-14T09:01:36;5.63;;;3.55;;
15667;SDS011;7934;48.710;9.024;2023-06-14T09:04:04;5.35;;;4.18;;
15667;SDS011;7934;48.710;9.024;2023-06-14T09:06:33;5.10;;;3.70;;
15667;SDS011;7934;48.710;9.024;2023-06-14T09:09:02;7.13;;;4.00;;
15667;SDS011;7934;48.710;9.024;2023-06-14T09:11:30;4.53;;;4.10;;
15667;SDS011;7934;48.710;9.024;2023-06-14T09:13:57;4.85;;;3.70;;
15667;SDS011;7934;48.710;9.024;2023-06-14T09:16:25;6.40;;;4.35;;
15667;SDS011;7934;48.710;9.024;2023-06-14T09:18:52;5.13;;;4.13;;
15667;SDS011;7934;48.710;9.024;2023-06-14T09:21:20;4.30;;;3.90;;
15667;SDS011;7934;48.710;9.024;2023-06-14T09:23:49;4.43;;;3.72;;
15667;SDS011;7934;48.710;9.024;2023-06-14T09:26:16;4.37;;;3.80;;
15667;SDS011;7934;48.710;9.024;2023-06-14T09:28:44;5.22;;;3.92;;
15667;SDS011;7934;48.710;9.024;2023-06-14T09:31:12;6.40;;;3.75;;
15667;SDS011;7934;48.710;9.024;2023-06-14T09:33:41;5.05;;;3.80;;
15667;SDS011;7934;48.710;9.024;2023-06-14T09:36:12;4.13;;;3.63;;
15667;SDS011;7934;48.710;9.024;2023-06-14T09:38:42;4.30;;;3.60;;
15667;SDS011;7934;48.710;9.024;2023-06-14T09:41:19;5.88;;;3.85;;
15667;SDS011;7934;48.710;9.024;2023-06-14T09:43:47;6.03;;;4.10;;
15667;SDS011;7934;48.710;9.024;2023-06-14T09:46:14;7.70;;;3.97;;
15667;SDS011;7934;48.710;9.024;2023-06-14T09:48:42;3.80;;;3.50;;
15667;SDS011;7934;48.710;9.024;2023-06-14T09:51:09;4.32;;;3.97;;
15667;SDS011;7934;48.710;9.024;2023-06-14T09:53:37;5.72;;;3.95;;
15667;SDS011;7934;48.710;9.024;2023-06-14T09:56:05;4.03;;;3.70;;
15667;SDS011;7934;48.710;9.024;2023-06-14T09:58:34;6.53;;;4.10;;
15667;SDS011;7934;48.710;9.024;2023-06-14T10:01:03;5.55;;;4.10;;
15667;SDS011;7934;48.710;9.024;2023-06-14T10:03:32;6.07;;;4.00;;
15667;SDS011;7934;48.710;9.024;2023-06-14T10:05:59;14.50;;;4.18;;
15667;SDS011;7934;48.710;9.024;2023-06-14T10:08:30;4.63;;;3.88;;
15667;SDS011;7934;48.710;9.024;2023-06-14T10:10:58;4.88;;;3.88;;
15667;SDS011;7934;48.710;9.024;2023-06-14T10:13:25;7.72;;;4.10;;
15667;SDS011;7934;48.710;9.024;2023-06-14T10:15:57;7.35;;;4.30;;
15667;SDS011;7934;48.710;9.024;2023-06-14T10:18:28;4.10;;;3.72;;
15667;SDS011;7934;48.710;9.024;2023-06-14T10:21:02;4.05;;;3.78;;
15667;SDS011;7934;48.710;9.024;2023-06-14T10:23:32;4.72;;;4.03;;
15667;SDS011;7934;48.710;9.024;2023-06-14T10:26:01;4.25;;;3.85;;
15667;SDS011;7934;48.710;9.024;2023-06-14T10:28:28;4.22;;;3.80;;
15667;SDS011;7934;48.710;9.024;2023-06-14T10:31:08;7.20;;;4.00;;
15667;SDS011;7934;48.710;9.024;2023-06-14T10:33:36;5.45;;;3.70;;
15667;SDS011;7934;48.710;9.024;2023-06-14T10:36:10;3.90;;;3.58;;
15667;SDS011;7934;48.710;9.024;2023-06-14T10:38:37;4.70;;;3.60;;
15667;SDS011;7934;48.710;9.024;2023-06-14T10:41:05;4.32;;;3.47;;
15667;SDS011;7934;48.710;9.024;2023-06-14T10:43:32;4.73;;;3.70;;
15667;SDS011;7934;48.710;9.024;2023-06-14T10:46:16;4.20;;;3.80;;
15667;SDS011;7934;48.710;9.024;2023-06-14T10:48:46;4.57;;;3.97;;
15667;SDS011;7934;48.710;9.024;2023-06-14T10:51:17;6.13;;;4.17;;
15667;SDS011;7934;48.710;9.024;2023-06-14T10:53:47;6.75;;;4.53;;
15667;SDS011;7934;48.710;9.024;2023-06-14T10:56:26;5.97;;;4.03;;
15667;SDS011;7934;48.710;9.024;2023-06-14T10:58:54;3.85;;;3.60;;
15667;SDS011;7934;48.710;9.024;2023-06-14T11:01:28;5.57;;;4.00;;
15667;SDS011;7934;48.710;9.024;2023-06-14T11:04:00;4.10;;;3.80;;
15667;SDS011;7934;48.710;9.024;2023-06-14T11:06:35;6.67;;;4.10;;
15667;SDS011;7934;48.710;9.024;2023-06-14T11:09:28;6.75;;;4.05;;
15667;SDS011;7934;48.710;9.024;2023-06-14T11:12:03;5.13;;;4.22;;
15667;SDS011;7934;48.710;9.024;2023-06-14T11:14:30;5.22;;;3.75;;
15667;SDS011;7934;48.710;9.024;2023-06-14T11:16:59;4.20;;;3.90;;
15667;SDS011;7934;48.710;9.024;2023-06-14T11:19:26;6.68;;;4.80;;
15667;SDS011;7934;48.710;9.024;2023-06-14T11:21:54;6.65;;;3.90;;
15667;SDS011;7934;48.710;9.024;2023-06-14T11:24:21;4.25;;;4.03;;
15667;SDS011;7934;48.710;9.024;2023-06-14T11:26:49;7.30;;;4.10;;
15667;SDS011;7934;48.710;9.024;2023-06-14T11:29:16;4.43;;;4.03;;
15667;SDS011;7934;48.710;9.024;2023-06-14T11:31:43;5.72;;;3.97;;
15667;SDS011;7934;48.710;9.024;2023-06-14T11:34:12;4.90;;;3.87;;
15667;SDS011;7934;48.710;9.024;2023-06-14T11:36:40;5.35;;;4.07;;
15667;SDS011;7934;48.710;9.024;2023-06-14T11:39:08;5.38;;;4.20;;
15667;SDS011;7934;48.710;9.024;2023-06-14T11:41:36;5.53;;;3.58;;
15667;SDS011;7934;48.710;9.024;2023-06-14T11:44:03;5.90;;;3.55;;
15667;SDS011;7934;48.710;9.024;2023-06-14T11:46:31;3.97;;;3.70;;
15667;SDS011;7934;48.710;9.024;2023-06-14T11:48:58;8.40;;;3.80;;
15667;SDS011;7934;48.710;9.024;2023-06-14T11:51:29;4.57;;;3.97;;
15667;SDS011;7934;48.710;9.024;2023-06-14T11:53:56;5.57;;;3.72;;
15667;SDS011;7934;48.710;9.024;2023-06-14T11:56:24;6.07;;;3.78;;
15667;SDS011;7934;48.710;9.024;2023-06-14T11:58:52;4.18;;;3.70;;
15667;SDS011;7934;48.710;9.024;2023-06-14T12:01:21;4.93;;;3.60;;
15667;SDS011;7934;48.710;9.024;2023-06-14T12:03:49;5.65;;;3.85;;
15667;SDS011;7934;48.710;9.024;2023-06-14T12:06:16;6.10;;;4.17;;
15667;SDS011;7934;48.710;9.024;2023-06-14T12:08:45;5.25;;;3.90;;
15667;SDS011;7934;48.710;9.024;2023-06-14T12:11:14;3.90;;;3.63;;
15667;SDS011;7934;48.710;9.024;2023-06-14T12:13:42;4.17;;;3.83;;
15667;SDS011;7934;48.710;9.024;2023-06-14T12:16:10;6.63;;;3.83;;
15667;SDS011;7934;48.710;9.024;2023-06-14T12:18:37;4.80;;;3.80;;
15667;SDS011;7934;48.710;9.024;2023-06-14T12:21:06;5.28;;;3.50;;
15667;SDS011;7934;48.710;9.024;2023-06-14T12:23:43;6.07;;;3.90;;
15667;SDS011;7934;48.710;9.024;2023-06-14T12:26:13;7.07;;;3.60;;
15667;SDS011;7934;48.710;9.024;2023-06-14T12:28:41;4.10;;;3.70;;
15667;SDS011;7934;48.710;9.024;2023-06-14T12:31:08;4.13;;;3.83;;
15667;SDS011;7934;48.710;9.024;2023-06-14T12:33:36;3.50;;;3.30;;
15667;SDS011;7934;48.710;9.024;2023-06-14T12:36:04;4.65;;;3.60;;
15667;SDS011;7934;48.710;9.024;2023-06-14T12:38:32;4.20;;;3.80;;
15667;SDS011;7934;48.710;9.024;2023-06-14T12:40:59;4.67;;;3.30;;
15667;SDS011;7934;48.710;9.024;2023-06-14T12:43:27;4.03;;;3.47;;
15667;SDS011;7934;48.710;9.024;2023-06-14T12:45:55;5.18;;;3.58;;
15667;SDS011;7934;48.710;9.024;2023-06-14T12:48:22;3.83;;;3.63;;
15667;SDS011;7934;48.710;9.024;2023-06-14T12:50:49;4.35;;;3.38;;
15667;SDS011;7934;48.710;9.024;2023-06-14T12:53:16;4.43;;;3.35;;
15667;SDS011;7934;48.710;9.024;2023-06-14T12:55:43;6.03;;;3.60;;
15667;SDS011;7934;48.710;9.024;2023-06-14T12:58:10;6.32;;;3.78;;
15667;SDS011;7934;48.710;9.024;2023-06-14T13:00:40;6.18;;;3.55;;
15667;SDS011;7934;48.710;9.024;2023-06-14T13:03:07;6.45;;;3.40;;
15667;SDS011;7934;48.710;9.024;2023-06-14T13:05:34;4.03;;;3.40;;
15667;SDS011;7934;48.710;9.024;2023-06-14T13:08:02;3.55;;;3.33;;
15667;SDS011;7934;48.710;9.024;2023-06-14T13:10:29;3.53;;;3.22;;
15667;SDS011;7934;48.710;9.024;2023-06-14T13:12:56;3.50;;;3.20;;
15667;SDS011;7934;48.710;9.024;2023-06-14T13:15:25;4.85;;;3.50;;
15667;SDS011;7934;48.710;9.024;2023-06-14T13:17:53;4.82;;;3.50;;
15667;SDS011;7934;48.710;9.024;2023-06-14T13:20:20;4.22;;;3.83;;
15667;SDS011;7934;48.710;9.024;2023-06-14T13:22:48;4.20;;;3.42;;
15667;SDS011;7934;48.710;9.024;2023-06-14T13:25:15;4.95;;;3.83;;
15667;SDS011;7934;48.710;9.024;2023-06-14T13:27:42;5.03;;;3.60;;
15667;SDS011;7934;48.710;9.024;2023-06-14T13:30:10;3.90;;;3.33;;
15667;SDS011;7934;48.710;9.024;2023-06-14T13:32:37;6.10;;;3.70;;
15667;SDS011;7934;48.710;9.024;2023-06-14T13:35:06;3.55;;;3.25;;
15667;SDS011;7934;48.710;9.024;2023-06-14T13:37:33;3.45;;;3.25;;
15667;SDS011;7934;48.710;9.024;2023-06-14T13:40:00;3.90;;;3.60;;
15667;SDS011;7934;48.710;9.024;2023-06-14T13:42:28;6.60;;;3.58;;
15667;SDS011;7934;48.710;9.024;2023-06-14T13:44:57;6.90;;;3.75;;
15667;SDS011;7934;48.710;9.024;2023-06-14T13:47:24;7.07;;;3.53;;
15667;SDS011;7934;48.710;9.024;2023-06-14T13:49:51;4.18;;;3.78;;
15667;SDS011;7934;48.710;9.024;2023-06-14T13:52:20;4.53;;;3.30;;
15667;SDS011;7934;48.710;9.024;2023-06-14T13:54:47;4.88;;;3.72;;
15667;SDS011;7934;48.710;9.024;2023-06-14T13:57:14;3.50;;;3.28;;
15667;SDS011;7934;48.710;9.024;2023-06-14T13:59:41;5.07;;;3.20;;
15667;SDS011;7934;48.710;9.024;2023-06-14T14:02:10;4.72;;;3.25;;
15667;SDS011;7934;48.710;9.024;2023-06-14T14:04:37;6.55;;;3.78;;
15667;SDS011;7934;48.710;9.024;2023-06-14T14:07:05;4.28;;;3.58;;
15667;SDS011;7934;48.710;9.024;2023-06-14T14:09:34;4.15;;;3.30;;
15667;SDS011;7934;48.710;9.024;2023-06-14T14:12:02;4.30;;;3.17;;
15667;SDS011;7934;48.710;9.024;2023-06-14T14:14:29;3.70;;;3.40;;
15667;SDS011;7934;48.710;9.024;2023-06-14T14:16:57;3.83;;;3.53;;
15667;SDS011;7934;48.710;9.024;2023-06-14T14:19:24;4.57;;;3.10;;
15667;SDS011;7934;48.710;9.024;2023-06-14T14:21:51;3.37;;;3.23;;
15667;SDS011;7934;48.710;9.024;2023-06-14T14:24:19;4.20;;;3.45;;
15667;SDS011;7934;48.710;9.024;2023-06-14T14:26:47;3.78;;;3.30;;
15667;SDS011;7934;48.710;9.024;2023-06-14T14:29:17;3.30;;;3.10;;
15667;SDS011;7934;48.710;9.024;2023-06-14T14:31:44;4.47;;;3.15;;
15667;SDS011;7934;48.710;9.024;2023-06-14T14:34:11;3.67;;;3.38;;
15667;SDS011;7934;48.710;9.024;2023-06-14T14:36:38;5.28;;;3.33;;
15667;SDS011;7934;48.710;9.024;2023-06-14T14:39:08;4.03;;;3.35;;
15667;SDS011;7934;48.710;9.024;2023-06-14T14:41:35;3.53;;;3.27;;
15667;SDS011;7934;48.710;9.024;2023-06-14T14:44:04;7.72;;;3.58;;
15667;SDS011;7934;48.710;9.024;2023-06-14T14:46:32;3.88;;;3.30;;
15667;SDS011;7934;48.710;9.024;2023-06-14T14:48:59;4.33;;;3.80;;
15667;SDS011;7934;48.710;9.024;2023-06-14T14:51:26;5.50;;;3.20;;
15667;SDS011;7934;48.710;9.024;2023-06-14T14:53:53;4.88;;;3.70;;
15667;SDS011;7934;48.710;9.024;2023-06-14T14:56:21;3.60;;;3.35;;
15667;SDS011;7934;48.710;9.024;2023-06-14T14:58:48;3.90;;;3.50;;
15667;SDS011;7934;48.710;9.024;2023-06-14T15:01:17;3.38;;;3.17;;
15667;SDS011;7934;48.710;9.024;2023-06-14T15:03:44;4.93;;;3.90;;
15667;SDS011;7934;48.710;9.024;2023-06-14T15:06:11;3.72;;;3.45;;